createdAt,value
2024-01-09T00:01:19.961Z,101184.72
2024-01-09T00:03:47.864Z,101184.91
2024-01-09T00:06:16.488Z,101187.47
2024-01-09T00:08:45.109Z,101184.34
2024-01-09T00:11:15.070Z,101182.53
2024-01-09T00:13:43.403Z,101176.66
2024-01-09T00:16:11.119Z,101176.34
2024-01-09T00:18:38.898Z,101191.16
2024-01-09T00:21:06.742Z,101191.69
2024-01-09T00:23:34.723Z,101186.56
2024-01-09T00:26:02.524Z,101190.06
2024-01-09T00:28:30.253Z,101190.63
2024-01-09T00:30:58.022Z,101190.63
2024-01-09T00:33:26.059Z,101192.84
2024-01-09T00:35:54.025Z,101187.97
2024-01-09T00:38:22.001Z,101193.41
2024-01-09T00:40:49.638Z,101193.94
2024-01-09T00:43:17.532Z,101197.94
2024-01-09T00:45:45.315Z,101188.47
2024-01-09T00:48:13.259Z,101192.53
2024-01-09T00:50:41.236Z,101200.53
2024-01-09T00:53:09.057Z,101193.66
2024-01-09T00:55:36.765Z,101200.22
2024-01-09T00:58:04.755Z,101204.59
2024-01-09T01:00:32.505Z,101202.59
2024-01-09T01:03:00.179Z,101211.00
2024-01-09T01:05:28.044Z,101213.28
2024-01-09T01:07:55.921Z,101208.16
2024-01-09T01:10:23.723Z,101212.44
2024-01-09T01:12:51.463Z,101219.81
2024-01-09T01:15:19.298Z,101227.06
2024-01-09T01:17:47.017Z,101220.50
2024-01-09T01:20:15.026Z,101229.97
2024-01-09T01:22:42.670Z,101233.47
2024-01-09T01:25:10.717Z,101231.13
2024-01-09T01:27:38.556Z,101229.41
2024-01-09T01:30:07.068Z,101235.25
2024-01-09T01:32:35.012Z,101239.81
2024-01-09T01:35:02.915Z,101242.59
2024-01-09T01:37:32.058Z,101233.94
2024-01-09T01:39:59.765Z,101248.31
2024-01-09T01:42:27.547Z,101249.16
2024-01-09T01:44:55.319Z,101247.50
2024-01-09T01:47:23.192Z,101245.03
2024-01-09T01:49:51.467Z,101250.16
2024-01-09T01:52:20.378Z,101255.81
2024-01-09T01:54:48.216Z,101254.38
2024-01-09T01:57:16.315Z,101258.81
2024-01-09T01:59:46.994Z,101258.28
2024-01-09T02:02:15.925Z,101262.38
2024-01-09T02:04:44.933Z,101262.91
2024-01-09T02:07:12.664Z,101260.41
2024-01-09T02:09:40.713Z,101265.06
2024-01-09T02:12:08.876Z,101272.47
2024-01-09T02:14:36.760Z,101270.28
2024-01-09T02:17:04.936Z,101266.56
2024-01-09T02:19:32.604Z,101277.91
2024-01-09T02:22:00.409Z,101272.78
2024-01-09T02:24:29.838Z,101263.84
2024-01-09T02:27:20.591Z,101266.59
2024-01-09T02:29:52.341Z,101268.72
2024-01-09T02:32:21.019Z,101264.59
2024-01-09T02:34:49.859Z,101266.31
2024-01-09T02:37:17.559Z,101267.91
2024-01-09T02:39:45.207Z,101267.44
2024-01-09T02:42:14.292Z,101271.22
2024-01-09T02:44:41.939Z,101268.75
2024-01-09T02:47:09.895Z,101269.34
2024-01-09T02:49:37.955Z,101271.22
2024-01-09T02:52:05.981Z,101272.91
2024-01-09T02:54:33.605Z,101266.84
2024-01-09T02:57:01.471Z,101270.97
2024-01-09T02:59:29.318Z,101267.50
2024-01-09T03:01:57.158Z,101267.75
2024-01-09T03:04:26.209Z,101277.72
2024-01-09T03:06:54.110Z,101272.41
2024-01-09T03:09:21.988Z,101272.09
2024-01-09T03:11:49.918Z,101269.66
2024-01-09T03:14:17.750Z,101274.81
2024-01-09T03:16:49.102Z,101272.41
2024-01-09T03:19:17.245Z,101275.59
2024-01-09T03:21:45.210Z,101275.66
2024-01-09T03:24:12.845Z,101272.69
2024-01-09T03:26:40.777Z,101274.63
2024-01-09T03:29:08.569Z,101281.69
2024-01-09T03:31:36.303Z,101284.41
2024-01-09T03:34:04.328Z,101282.81
2024-01-09T03:36:33.111Z,101286.88
2024-01-09T03:39:00.904Z,101288.06
2024-01-09T03:41:28.612Z,101293.16
2024-01-09T03:43:56.671Z,101292.34
2024-01-09T03:46:24.297Z,101298.53
2024-01-09T03:49:01.832Z,101295.91
2024-01-09T03:51:30.654Z,101298.31
2024-01-09T03:53:58.515Z,101292.09
2024-01-09T03:56:26.660Z,101297.31
2024-01-09T03:58:54.516Z,101298.91
2024-01-09T04:01:22.363Z,101301.88
2024-01-09T04:03:50.379Z,101293.78
2024-01-09T04:06:18.180Z,101308.91
2024-01-09T04:08:46.109Z,101302.44
2024-01-09T04:11:16.397Z,101314.03
2024-01-09T04:13:44.233Z,101315.66
2024-01-09T04:16:14.718Z,101314.06
2024-01-09T04:18:42.720Z,101321.34
2024-01-09T04:21:10.993Z,101327.84
2024-01-09T04:23:38.834Z,101330.84
2024-01-09T04:26:06.672Z,101330.56
2024-01-09T04:28:34.657Z,101330.00
2024-01-09T04:31:02.604Z,101326.78
2024-01-09T04:33:30.637Z,101334.69
2024-01-09T04:35:58.723Z,101326.00
2024-01-09T04:38:26.410Z,101324.91
2024-01-09T04:40:54.357Z,101335.63
2024-01-09T04:43:22.291Z,101333.50
2024-01-09T04:45:50.267Z,101334.81
2024-01-09T04:48:18.283Z,101341.63
2024-01-09T04:50:46.147Z,101341.69
2024-01-09T04:53:14.003Z,101341.41
2024-01-09T04:55:41.936Z,101337.38
2024-01-09T04:58:09.714Z,101358.13
2024-01-09T05:00:37.416Z,101351.41
2024-01-09T05:03:05.533Z,101354.13
2024-01-09T05:05:33.308Z,101361.09
2024-01-09T05:08:01.071Z,101366.81
2024-01-09T05:10:31.962Z,101357.88
2024-01-09T05:12:59.871Z,101364.16
2024-01-09T05:15:27.438Z,101371.44
2024-01-09T05:17:55.329Z,101365.00
2024-01-09T05:20:23.826Z,101355.25
2024-01-09T05:22:52.081Z,101361.72
2024-01-09T05:25:19.930Z,101366.03
2024-01-09T05:27:47.836Z,101366.03
2024-01-09T05:30:16.061Z,101365.78
2024-01-09T05:32:43.980Z,101357.94
2024-01-09T05:35:11.771Z,101384.66
2024-01-09T05:37:39.711Z,101386.84
2024-01-09T05:40:08.715Z,101380.38
2024-01-09T05:42:36.461Z,101387.94
2024-01-09T05:45:06.095Z,101384.16
2024-01-09T05:47:34.085Z,101397.16
2024-01-09T05:50:02.805Z,101397.94
2024-01-09T05:52:35.381Z,101396.06
2024-01-09T05:55:07.410Z,101402.03
2024-01-09T05:57:35.344Z,101411.69
2024-01-09T06:00:06.884Z,101413.31
2024-01-09T06:02:34.902Z,101414.97
2024-01-09T06:05:03.514Z,101420.38
2024-01-09T06:07:31.408Z,101418.44
2024-01-09T06:09:59.340Z,101421.72
2024-01-09T06:12:27.074Z,101430.06
2024-01-09T06:14:54.922Z,101423.88
2024-01-09T06:17:24.697Z,101429.59
2024-01-09T06:19:52.533Z,101434.22
2024-01-09T06:22:20.365Z,101424.22
2024-01-09T06:24:48.156Z,101449.63
2024-01-09T06:27:15.880Z,101446.13
2024-01-09T06:29:46.818Z,101456.66
2024-01-09T06:32:14.955Z,101452.88
2024-01-09T06:34:42.794Z,101447.47
2024-01-09T06:37:10.605Z,101460.97
2024-01-09T06:39:38.440Z,101460.69
2024-01-09T06:42:10.529Z,101467.44
2024-01-09T06:44:41.337Z,101461.25
2024-01-09T06:47:13.719Z,101476.38
2024-01-09T06:49:41.603Z,101471.25
2024-01-09T06:52:09.234Z,101479.88
2024-01-09T06:54:36.898Z,101476.63
2024-01-09T06:57:04.664Z,101487.41
2024-01-09T06:59:32.384Z,101489.28
2024-01-09T07:02:00.117Z,101489.56
2024-01-09T07:04:27.990Z,101491.75
2024-01-09T07:06:56.198Z,101497.16
2024-01-09T07:09:23.891Z,101494.97
2024-01-09T07:11:51.591Z,101507.97
2024-01-09T07:14:19.482Z,101500.38
2024-01-09T07:16:47.195Z,101506.91
2024-01-09T07:19:15.156Z,101502.25
2024-01-09T07:21:42.929Z,101500.81
2024-01-09T07:24:10.871Z,101505.59
2024-01-09T07:26:42.725Z,101500.16
2024-01-09T07:29:12.267Z,101508.56
2024-01-09T07:31:40.037Z,101506.50
2024-01-09T07:34:07.976Z,101507.63
2024-01-09T07:36:36.176Z,101498.75
2024-01-09T07:39:04.174Z,101509.56
2024-01-09T07:41:31.786Z,101516.63
2024-01-09T07:44:00.196Z,101525.53
2024-01-09T07:46:27.882Z,101528.81
2024-01-09T07:48:55.712Z,101538.50
2024-01-09T07:51:23.539Z,101536.59
2024-01-09T07:53:51.200Z,101540.38
2024-01-09T07:56:19.944Z,101541.63
2024-01-09T07:58:47.907Z,101542.25
2024-01-09T08:01:16.708Z,101550.50
2024-01-09T08:03:44.472Z,101549.38
2024-01-09T08:06:18.123Z,101551.66
2024-01-09T08:08:48.197Z,101543.63
2024-01-09T08:11:17.954Z,101550.13
2024-01-09T08:13:45.723Z,101546.09
2024-01-09T08:16:13.402Z,101554.75
2024-01-09T08:18:41.628Z,101550.16
2024-01-09T08:21:09.424Z,101557.72
2024-01-09T08:23:37.260Z,101562.84
2024-01-09T08:26:05.185Z,101564.75
2024-01-09T08:28:32.971Z,101580.69
2024-01-09T08:31:02.150Z,101571.22
2024-01-09T08:33:33.389Z,101583.66
2024-01-09T08:36:03.127Z,101577.97
2024-01-09T08:38:31.050Z,101589.06
2024-01-09T08:40:59.360Z,101590.66
2024-01-09T08:43:27.253Z,101597.47
2024-01-09T08:45:58.180Z,101600.97
2024-01-09T08:48:26.631Z,101603.66
2024-01-09T08:50:54.698Z,101605.84
2024-01-09T08:53:22.427Z,101608.22
2024-01-09T08:55:50.177Z,101610.09
2024-01-09T08:58:17.969Z,101611.69
2024-01-09T09:00:45.821Z,101620.28
2024-01-09T09:03:13.714Z,101616.22
2024-01-09T09:05:41.576Z,101619.91
2024-01-09T09:08:09.512Z,101620.19
2024-01-09T09:10:37.308Z,101628.34
2024-01-09T09:13:06.157Z,101626.72
2024-01-09T09:15:33.997Z,101632.25
2024-01-09T09:18:01.896Z,101633.00
2024-01-09T09:20:29.965Z,101632.38
2024-01-09T09:22:58.477Z,101647.38
2024-01-09T09:25:26.218Z,101649.06
2024-01-09T09:27:54.870Z,101652.50
2024-01-09T09:30:23.131Z,101660.38
2024-01-09T09:32:52.241Z,101661.00
2024-01-09T09:35:19.964Z,101671.47
2024-01-09T09:37:47.812Z,101670.59
2024-01-09T09:40:16.789Z,101670.13
2024-01-09T09:42:47.463Z,101672.97
2024-01-09T09:45:17.348Z,101675.19
2024-01-09T09:47:47.263Z,101675.91
2024-01-09T09:50:15.844Z,101673.59
2024-01-09T09:52:43.787Z,101679.63
2024-01-09T09:55:11.859Z,101680.44
2024-01-09T09:57:39.673Z,101680.50
2024-01-09T10:00:11.930Z,101678.25
2024-01-09T10:02:48.874Z,101679.31
2024-01-09T10:05:20.909Z,101677.47
2024-01-09T10:07:51.370Z,101678.53
2024-01-09T10:10:22.041Z,101682.81
2024-01-09T10:12:50.088Z,101681.19
2024-01-09T10:15:19.192Z,101679.66
2024-01-09T10:17:47.751Z,101683.56
2024-01-09T10:20:16.945Z,101677.34
2024-01-09T10:22:45.069Z,101674.94
2024-01-09T10:25:14.218Z,101675.97
2024-01-09T10:27:42.430Z,101684.25
2024-01-09T10:30:12.255Z,101671.69
2024-01-09T10:32:45.125Z,101671.66
2024-01-09T10:35:14.436Z,101671.22
2024-01-09T10:37:45.641Z,101664.34
2024-01-09T10:40:13.977Z,101664.19
2024-01-09T10:42:48.899Z,101669.50
2024-01-09T10:45:20.901Z,101661.81
2024-01-09T10:47:49.288Z,101658.97
2024-01-09T10:50:17.985Z,101656.34
2024-01-09T10:52:47.640Z,101663.22
2024-01-09T10:55:20.425Z,101659.13
2024-01-09T10:57:49.006Z,101663.25
2024-01-09T11:00:20.190Z,101654.13
2024-01-09T11:02:49.001Z,101658.13
2024-01-09T11:05:17.277Z,101652.84
2024-01-09T11:07:47.656Z,101652.56
2024-01-09T11:10:19.164Z,101648.72
2024-01-09T11:12:52.237Z,101646.59
2024-01-09T11:15:22.923Z,101642.44
2024-01-09T11:18:02.392Z,101640.72
2024-01-09T11:20:30.965Z,101637.97
2024-01-09T11:22:58.941Z,101642.53
2024-01-09T11:25:31.003Z,101648.22
2024-01-09T11:28:00.009Z,101642.84
2024-01-09T11:30:31.817Z,101642.69
2024-01-09T11:33:35.578Z,101639.47
2024-01-09T11:36:07.164Z,101632.69
2024-01-09T11:38:35.502Z,101630.25
2024-01-09T11:41:04.651Z,101633.78
2024-01-09T11:44:02.151Z,101626.78
2024-01-09T11:46:32.911Z,101624.78
2024-01-09T11:49:01.888Z,101624.28
2024-01-09T11:51:32.977Z,101623.81
2024-01-09T11:54:02.424Z,101617.75
2024-01-09T11:56:31.297Z,101614.25
2024-01-09T11:59:00.223Z,101610.41
2024-01-09T12:01:28.493Z,101603.13
2024-01-09T12:03:59.439Z,101616.69
2024-01-09T12:06:30.858Z,101599.13
2024-01-09T12:08:59.402Z,101608.66
2024-01-09T12:11:27.420Z,101604.44
2024-01-09T12:14:05.408Z,101605.84
2024-01-09T12:16:33.760Z,101600.91
2024-01-09T12:19:03.109Z,101600.44
2024-01-09T12:21:34.170Z,101601.41
2024-01-09T12:26:38.320Z,101602.50
2024-01-09T12:29:07.110Z,101608.91
2024-01-09T12:31:35.233Z,101606.69
2024-01-09T12:34:04.707Z,101601.34
2024-01-09T12:36:33.208Z,101608.34
2024-01-09T12:39:01.267Z,101601.31
2024-01-09T12:41:31.023Z,101600.28
2024-01-09T12:44:15.187Z,101593.28
2024-01-09T12:46:46.888Z,101595.25
2024-01-09T12:49:15.301Z,101599.50
2024-01-09T12:51:43.565Z,101603.63
2024-01-09T12:54:21.123Z,101605.72
2024-01-09T12:56:50.261Z,101594.31
2024-01-09T12:59:19.439Z,101599.13
2024-01-09T13:01:47.074Z,101599.31
2024-01-09T13:04:15.096Z,101602.16
2024-01-09T13:06:44.408Z,101594.69
2024-01-09T13:09:13.570Z,101607.22
2024-01-09T13:11:42.762Z,101603.56
2024-01-09T13:14:11.467Z,101602.03
2024-01-09T13:16:39.253Z,101589.22
2024-01-09T13:19:08.326Z,101601.38
2024-01-09T13:23:37.123Z,101603.16
2024-01-09T13:24:24.033Z,101600.78
2024-01-09T13:26:51.672Z,101600.22
2024-01-09T13:30:46.161Z,101601.91
2024-01-09T13:32:08.218Z,101613.88
2024-01-09T13:34:36.244Z,101617.06
2024-01-09T13:37:04.301Z,101620.03
2024-01-09T13:39:32.107Z,101629.63
2024-01-09T13:41:59.995Z,101634.50
2024-01-09T13:44:28.107Z,101634.84
2024-01-09T13:46:57.090Z,101639.56
2024-01-09T13:49:25.178Z,101647.63
2024-01-09T13:51:55.548Z,101657.91
2024-01-09T13:54:26.768Z,101658.69
2024-01-09T13:56:55.044Z,101660.41
2024-01-09T13:59:23.830Z,101674.56
2024-01-09T14:01:52.208Z,101671.41
2024-01-09T14:04:20.518Z,101671.44
2024-01-09T14:06:48.410Z,101678.06
2024-01-09T14:09:16.365Z,101684.78
2024-01-09T14:11:44.298Z,101685.13
2024-01-09T14:14:12.354Z,101693.28
2024-01-09T14:16:40.347Z,101688.56
2024-01-09T14:19:10.542Z,101686.91
2024-01-09T14:21:38.542Z,101695.91
2024-01-09T14:24:06.826Z,101692.34
2024-01-09T14:26:34.578Z,101697.47
2024-01-09T14:29:02.350Z,101710.75
2024-01-09T14:31:31.220Z,101699.88
2024-01-09T14:34:00.173Z,101706.41
2024-01-09T14:36:27.947Z,101708.84
2024-01-09T14:38:55.639Z,101708.06
2024-01-09T14:41:23.263Z,101707.34
2024-01-09T14:43:52.406Z,101709.63
2024-01-09T14:46:20.100Z,101706.66
2024-01-09T14:48:48.317Z,101715.06
2024-01-09T14:51:16.245Z,101712.94
2024-01-09T14:53:43.849Z,101712.94
2024-01-09T14:56:11.552Z,101714.91
2024-01-09T14:58:39.320Z,101721.16
2024-01-09T15:01:07.124Z,101722.25
2024-01-09T15:03:34.856Z,101719.34
2024-01-09T15:06:02.629Z,101722.34
2024-01-09T15:08:30.313Z,101723.53
2024-01-09T15:10:58.131Z,101728.47
2024-01-09T15:13:26.876Z,101726.28
2024-01-09T15:15:54.754Z,101725.25
2024-01-09T15:18:22.976Z,101731.75
2024-01-09T15:20:50.676Z,101737.44
2024-01-09T15:23:18.703Z,101735.81
2024-01-09T15:25:46.587Z,101738.22
2024-01-09T15:28:18.628Z,101745.31
2024-01-09T15:30:46.822Z,101744.53
2024-01-09T15:33:14.677Z,101741.28
2024-01-09T15:35:44.265Z,101741.03
2024-01-09T15:38:12.364Z,101737.53
2024-01-09T15:40:40.392Z,101746.47
2024-01-09T15:43:08.577Z,101741.28
2024-01-09T15:45:36.356Z,101744.84
2024-01-09T15:48:06.597Z,101738.59
2024-01-09T15:50:34.280Z,101750.22
2024-01-09T15:53:05.735Z,101747.81
2024-01-09T15:55:34.251Z,101750.53
2024-01-09T15:58:04.046Z,101763.78
2024-01-09T16:00:32.319Z,101764.06
2024-01-09T16:03:01.027Z,101769.19
2024-01-09T16:05:29.713Z,101770.84
2024-01-09T16:07:57.696Z,101774.38
2024-01-09T16:10:31.102Z,101778.41
2024-01-09T16:12:59.230Z,101772.47
2024-01-09T16:15:26.975Z,101786.25
2024-01-09T16:17:54.857Z,101781.69
2024-01-09T16:20:24.343Z,101788.44
2024-01-09T16:22:52.113Z,101788.94
2024-01-09T16:25:19.956Z,101786.81
2024-01-09T16:27:47.847Z,101798.16
2024-01-09T16:30:15.847Z,101801.66
2024-01-09T16:32:43.676Z,101795.41
2024-01-09T16:35:11.577Z,101797.31
2024-01-09T16:37:39.413Z,101799.47
2024-01-09T16:40:10.781Z,101806.72
2024-01-09T16:42:39.670Z,101812.97
2024-01-09T16:45:09.133Z,101809.44
2024-01-09T16:47:37.362Z,101816.69
2024-01-09T16:50:05.956Z,101818.56
2024-01-09T16:52:35.029Z,101817.22
2024-01-09T16:55:02.754Z,101816.94
2024-01-09T16:57:30.359Z,101817.69
2024-01-09T16:59:58.159Z,101817.16
2024-01-09T17:02:26.287Z,101818.75
2024-01-09T17:04:54.463Z,101826.88
2024-01-09T17:07:22.328Z,101827.16
2024-01-09T17:09:49.967Z,101827.63
2024-01-09T17:12:17.801Z,101833.91
2024-01-09T17:14:45.855Z,101826.88
2024-01-09T17:17:13.856Z,101832.72
2024-01-09T17:19:41.929Z,101837.41
2024-01-09T17:22:10.726Z,101845.44
2024-01-09T17:24:38.923Z,101844.56
2024-01-09T17:27:06.717Z,101851.31
2024-01-09T17:29:34.612Z,101848.09
2024-01-09T17:32:02.331Z,101853.03
2024-01-09T17:34:30.400Z,101857.59
2024-01-09T17:36:58.227Z,101855.94
2024-01-09T17:39:26.535Z,101854.13
2024-01-09T17:41:55.108Z,101857.06
2024-01-09T17:44:22.801Z,101861.66
2024-01-09T17:46:50.587Z,101862.19
2024-01-09T17:49:18.256Z,101860.28
2024-01-09T17:51:46.016Z,101866.22
2024-01-09T17:54:13.902Z,101861.41
2024-01-09T17:56:41.779Z,101863.53
2024-01-09T17:59:10.579Z,101873.78
2024-01-09T18:01:45.335Z,101871.31
2024-01-09T18:04:18.044Z,101871.63
2024-01-09T18:06:48.468Z,101871.88
2024-01-09T18:09:23.306Z,101872.69
2024-01-09T18:11:55.269Z,101876.47
2024-01-09T18:14:23.633Z,101880.19
2024-01-09T18:16:51.465Z,101882.66
2024-01-09T18:19:19.453Z,101883.41
2024-01-09T18:21:47.427Z,101880.69
2024-01-09T18:24:15.892Z,101888.22
2024-01-09T18:26:53.153Z,101888.78
2024-01-09T18:29:23.469Z,101896.88
2024-01-09T18:31:55.820Z,101899.63
2024-01-09T18:34:24.506Z,101899.00
2024-01-09T18:36:52.434Z,101902.44
2024-01-09T18:39:20.490Z,101909.22
2024-01-09T18:41:49.739Z,101909.69
2024-01-09T18:44:17.767Z,101909.44
2024-01-09T18:46:46.811Z,101912.34
2024-01-09T18:49:14.648Z,101911.84
2024-01-09T18:51:42.577Z,101904.00
2024-01-09T18:54:12.844Z,101910.13
2024-01-09T18:56:41.979Z,101902.56
2024-01-09T18:59:11.861Z,101912.88
2024-01-09T19:01:43.632Z,101908.38
2024-01-09T19:04:11.807Z,101914.69
2024-01-09T19:06:39.686Z,101913.19
2024-01-09T19:09:13.475Z,101910.53
2024-01-09T19:11:41.629Z,101915.34
2024-01-09T19:14:13.048Z,101918.28
2024-01-09T19:16:46.606Z,101916.34
2024-01-09T19:19:17.320Z,101917.69
2024-01-09T19:21:46.827Z,101921.09
2024-01-09T19:24:17.480Z,101915.59
2024-01-09T19:26:46.431Z,101920.22
2024-01-09T19:29:18.319Z,101912.84
2024-01-09T19:31:46.620Z,101925.50
2024-01-09T19:34:14.711Z,101918.28
2024-01-09T19:36:47.086Z,101918.66
2024-01-09T19:39:15.453Z,101912.34
2024-01-09T19:41:43.221Z,101918.06
2024-01-09T19:44:11.240Z,101914.97
2024-01-09T19:46:42.455Z,101918.84
2024-01-09T19:49:11.717Z,101914.72
2024-01-09T19:51:42.254Z,101920.44
2024-01-09T19:54:13.053Z,101919.31
2024-01-09T19:56:41.486Z,101920.19
2024-01-09T19:59:09.428Z,101921.50
2024-01-09T20:01:37.378Z,101920.69
2024-01-09T20:04:05.366Z,101921.81
2024-01-09T20:06:33.239Z,101925.94
2024-01-09T20:09:01.098Z,101933.91
2024-01-09T20:11:29.657Z,101932.97
2024-01-09T20:14:00.644Z,101936.03
2024-01-09T20:16:30.015Z,101934.34
2024-01-09T20:18:58.396Z,101933.41
2024-01-09T20:21:31.173Z,101936.03
2024-01-09T20:23:59.819Z,101935.22
2024-01-09T20:26:29.660Z,101935.59
2024-01-09T20:28:58.795Z,101940.09
2024-01-09T20:31:31.031Z,101947.34
2024-01-09T20:33:59.135Z,101946.97
2024-01-09T20:36:26.938Z,101959.44
2024-01-09T20:38:55.132Z,101954.97
2024-01-09T20:41:22.990Z,101951.69
2024-01-09T20:43:50.903Z,101950.59
2024-01-09T20:46:18.810Z,101955.13
2024-01-09T20:48:46.729Z,101956.13
2024-01-09T20:51:14.546Z,101966.50
2024-01-09T20:53:43.278Z,101977.19
2024-01-09T20:56:11.258Z,101976.69
2024-01-09T20:58:39.306Z,101973.34
2024-01-09T21:01:07.265Z,101975.94
2024-01-09T21:03:35.086Z,101976.47
2024-01-09T21:06:02.938Z,101980.22
2024-01-09T21:08:30.643Z,101976.84
2024-01-09T21:10:58.366Z,101977.13
2024-01-09T21:13:26.280Z,101971.94
2024-01-09T21:15:54.180Z,101975.56
2024-01-09T21:18:21.916Z,101970.91
2024-01-09T21:20:49.877Z,101976.13
2024-01-09T21:23:26.914Z,101967.72
2024-01-09T21:25:59.860Z,101979.97
2024-01-09T21:28:27.616Z,101980.84
2024-01-09T21:30:55.731Z,101994.25
2024-01-09T21:33:25.138Z,101994.44
2024-01-09T21:35:53.076Z,101993.91
2024-01-09T21:38:21.456Z,102000.06
2024-01-09T21:40:57.887Z,101994.41
2024-01-09T21:43:26.909Z,102001.69
2024-01-09T21:45:54.600Z,101998.50
2024-01-09T21:48:22.288Z,101991.72
2024-01-09T21:50:50.126Z,102004.28
2024-01-09T21:53:18.005Z,101989.78
2024-01-09T21:55:45.775Z,101996.44
2024-01-09T21:58:14.597Z,101992.69
2024-01-09T22:00:42.429Z,101996.59
2024-01-09T22:03:11.319Z,102006.47
2024-01-09T22:05:39.240Z,102005.59
2024-01-09T22:08:07.430Z,102018.09
2024-01-09T22:10:35.122Z,102010.66
2024-01-09T22:13:03.359Z,102018.31
2024-01-09T22:15:33.092Z,102020.50
2024-01-09T22:18:00.822Z,102017.25
2024-01-09T22:20:28.861Z,102016.13
2024-01-09T22:22:56.628Z,102017.19
2024-01-09T22:25:24.647Z,102021.84
2024-01-09T22:27:52.381Z,102030.97
2024-01-09T22:30:20.249Z,102028.72
2024-01-09T22:32:48.085Z,102031.88
2024-01-09T22:35:16.259Z,102027.22
2024-01-09T22:37:44.056Z,102023.88
2024-01-09T22:40:12.687Z,102025.03
2024-01-09T22:42:40.368Z,102026.91
2024-01-09T22:45:08.682Z,102028.28
2024-01-09T22:47:36.870Z,102029.34
2024-01-09T22:50:05.230Z,102033.13
2024-01-09T22:52:33.291Z,102031.16
2024-01-09T22:55:01.093Z,102025.44
2024-01-09T22:57:28.872Z,102034.31
2024-01-09T22:59:56.555Z,102031.97
2024-01-09T23:02:24.381Z,102035.72
2024-01-09T23:04:52.238Z,102024.34
2024-01-09T23:07:20.090Z,102021.09
2024-01-09T23:09:47.803Z,102028.59
2024-01-09T23:12:15.947Z,102034.91
2024-01-09T23:14:43.892Z,102031.72
2024-01-09T23:17:11.898Z,102025.56
2024-01-09T23:19:40.029Z,102029.41
2024-01-09T23:22:07.858Z,102035.84
2024-01-09T23:24:35.800Z,102028.25
2024-01-09T23:27:03.648Z,102032.09
2024-01-09T23:29:31.572Z,102028.13
2024-01-09T23:31:59.513Z,102017.47
2024-01-09T23:34:27.276Z,102027.63
2024-01-09T23:36:55.036Z,102023.81
2024-01-09T23:39:22.818Z,102020.03
2024-01-09T23:41:50.612Z,102010.91
2024-01-09T23:44:18.446Z,102009.34
2024-01-09T23:46:46.264Z,102014.41
2024-01-09T23:49:14.320Z,102012.44
2024-01-09T23:51:42.047Z,102004.88
2024-01-09T23:54:09.740Z,102011.63
2024-01-09T23:56:37.576Z,102008.19
2024-01-09T23:59:05.439Z,102003.19
